sensor_id;sensor_type;location;lat;lon;timestamp;temperature;humidity
72576;DHT22;60613;48.658;2.328;2023-01-16T07:02:38;21.80;34.20
72576;DHT22;60613;48.658;2.328;2023-01-16T07:05:07;21.60;34.80
72576;DHT22;60613;48.658;2.328;2023-01-16T07:07:33;21.50;34.70
72576;DHT22;60613;48.658;2.328;2023-01-16T07:09:59;21.30;35.50
72576;DHT22;60613;48.658;2.328;2023-01-16T07:12:24;21.10;35.20
72576;DHT22;60613;48.658;2.328;2023-01-16T07:14:50;21.00;34.50
72576;DHT22;60613;48.658;2.328;2023-01-16T07:17:34;20.90;34.90
72576;DHT22;60613;48.658;2.328;2023-01-16T07:20:18;20.80;34.60
72576;DHT22;60613;48.658;2.328;2023-01-16T07:23:21;20.50;35.20
72576;DHT22;60613;48.658;2.328;2023-01-16T07:25:49;20.50;36.80
72576;DHT22;60613;48.658;2.328;2023-01-16T07:28:16;20.70;36.90
72576;DHT22;60613;48.658;2.328;2023-01-16T07:30:43;20.90;36.60
72576;DHT22;60613;48.658;2.328;2023-01-16T07:33:10;21.00;36.40
72576;DHT22;60613;48.658;2.328;2023-01-16T07:35:36;21.20;36.30
72576;DHT22;60613;48.658;2.328;2023-01-16T07:38:02;21.30;36.50
72576;DHT22;60613;48.658;2.328;2023-01-16T07:40:28;21.40;36.40
72576;DHT22;60613;48.658;2.328;2023-01-16T07:42:54;21.40;36.20
72576;DHT22;60613;48.658;2.328;2023-01-16T07:45:19;21.50;39.60
72576;DHT22;60613;48.658;2.328;2023-01-16T07:47:45;21.50;41.50
72576;DHT22;60613;48.658;2.328;2023-01-16T07:50:11;21.60;40.90
72576;DHT22;60613;48.658;2.328;2023-01-16T07:52:36;21.60;40.10
72576;DHT22;60613;48.658;2.328;2023-01-16T07:55:02;21.60;39.60
72576;DHT22;60613;48.658;2.328;2023-01-16T07:57:28;21.70;39.50
72576;DHT22;60613;48.658;2.328;2023-01-16T07:59:54;21.70;39.50
72576;DHT22;60613;48.658;2.328;2023-01-16T08:02:20;21.60;39.40
72576;DHT22;60613;48.658;2.328;2023-01-16T08:04:45;21.70;39.00
72576;DHT22;60613;48.658;2.328;2023-01-16T08:07:11;21.70;38.70
72576;DHT22;60613;48.658;2.328;2023-01-16T08:09:36;21.70;38.30
72576;DHT22;60613;48.658;2.328;2023-01-16T08:12:02;21.60;38.10
72576;DHT22;60613;48.658;2.328;2023-01-16T08:14:28;21.60;38.40
72576;DHT22;60613;48.658;2.328;2023-01-16T08:16:54;21.60;39.40
72576;DHT22;60613;48.658;2.328;2023-01-16T08:19:19;21.60;40.30
72576;DHT22;60613;48.658;2.328;2023-01-16T08:21:45;21.70;41.00
72576;DHT22;60613;48.658;2.328;2023-01-16T08:24:11;21.70;40.30
72576;DHT22;60613;48.658;2.328;2023-01-16T08:26:39;21.70;40.20
72576;DHT22;60613;48.658;2.328;2023-01-16T08:29:04;21.70;40.00
72576;DHT22;60613;48.658;2.328;2023-01-16T08:31:30;21.70;39.40
72576;DHT22;60613;48.658;2.328;2023-01-16T08:33:56;21.70;39.50
72576;DHT22;60613;48.658;2.328;2023-01-16T08:36:22;21.70;39.60
72576;DHT22;60613;48.658;2.328;2023-01-16T08:38:48;21.70;39.70
72576;DHT22;60613;48.658;2.328;2023-01-16T08:41:14;21.70;40.20
72576;DHT22;60613;48.658;2.328;2023-01-16T08:43:59;21.70;38.90
72576;DHT22;60613;48.658;2.328;2023-01-16T08:46:43;21.70;39.00
72576;DHT22;60613;48.658;2.328;2023-01-16T08:49:29;21.70;38.70
72576;DHT22;60613;48.658;2.328;2023-01-16T08:52:13;21.70;38.90
72576;DHT22;60613;48.658;2.328;2023-01-16T08:54:39;21.70;38.60
72576;DHT22;60613;48.658;2.328;2023-01-16T08:57:04;21.60;38.40
72576;DHT22;60613;48.658;2.328;2023-01-16T08:59:30;21.70;38.60
72576;DHT22;60613;48.658;2.328;2023-01-16T09:02:00;21.70;38.40
72576;DHT22;60613;48.658;2.328;2023-01-16T09:04:26;21.80;38.10
72576;DHT22;60613;48.658;2.328;2023-01-16T09:06:51;21.80;37.70
72576;DHT22;60613;48.658;2.328;2023-01-16T09:09:19;21.80;37.80
72576;DHT22;60613;48.658;2.328;2023-01-16T09:11:44;21.80;37.90
72576;DHT22;60613;48.658;2.328;2023-01-16T09:14:29;21.80;37.70
72576;DHT22;60613;48.658;2.328;2023-01-16T09:16:54;21.80;37.60
72576;DHT22;60613;48.658;2.328;2023-01-16T09:19:20;21.80;37.90
72576;DHT22;60613;48.658;2.328;2023-01-16T09:21:46;21.70;37.50
72576;DHT22;60613;48.658;2.328;2023-01-16T09:24:11;21.80;37.50
72576;DHT22;60613;48.658;2.328;2023-01-16T09:26:37;21.70;37.50
72576;DHT22;60613;48.658;2.328;2023-01-16T09:29:03;21.80;37.60
72576;DHT22;60613;48.658;2.328;2023-01-16T09:31:28;21.80;37.60
72576;DHT22;60613;48.658;2.328;2023-01-16T09:33:54;21.80;37.40
72576;DHT22;60613;48.658;2.328;2023-01-16T09:36:20;21.70;37.30
72576;DHT22;60613;48.658;2.328;2023-01-16T09:38:46;21.70;37.40
72576;DHT22;60613;48.658;2.328;2023-01-16T09:41:16;21.70;37.40
72576;DHT22;60613;48.658;2.328;2023-01-16T09:44:08;21.70;37.10
72576;DHT22;60613;48.658;2.328;2023-01-16T09:46:48;21.70;37.10
72576;DHT22;60613;48.658;2.328;2023-01-16T09:49:26;21.70;37.10
72576;DHT22;60613;48.658;2.328;2023-01-16T09:52:02;21.70;37.00
72576;DHT22;60613;48.658;2.328;2023-01-16T09:54:54;21.70;37.10
72576;DHT22;60613;48.658;2.328;2023-01-16T09:57:39;21.70;37.10
72576;DHT22;60613;48.658;2.328;2023-01-16T10:00:27;21.70;37.00
72576;DHT22;60613;48.658;2.328;2023-01-16T10:02:55;21.70;36.80
72576;DHT22;60613;48.658;2.328;2023-01-16T10:05:24;21.70;36.90
72576;DHT22;60613;48.658;2.328;2023-01-16T10:08:14;21.70;36.90
72576;DHT22;60613;48.658;2.328;2023-01-16T10:10:46;21.70;37.00
72576;DHT22;60613;48.658;2.328;2023-01-16T10:27:05;21.70;38.00
72576;DHT22;60613;48.658;2.328;2023-01-16T10:29:39;21.70;36.70
72576;DHT22;60613;48.658;2.328;2023-01-16T10:32:19;21.80;36.60
72576;DHT22;60613;48.658;2.328;2023-01-16T10:35:01;21.70;36.70
72576;DHT22;60613;48.658;2.328;2023-01-16T10:37:32;21.70;36.50
72576;DHT22;60613;48.658;2.328;2023-01-16T10:39:59;21.70;36.60
72576;DHT22;60613;48.658;2.328;2023-01-16T10:42:29;21.70;36.50
72576;DHT22;60613;48.658;2.328;2023-01-16T10:45:20;21.70;36.40
72576;DHT22;60613;48.658;2.328;2023-01-16T10:48:16;21.60;36.40
72576;DHT22;60613;48.658;2.328;2023-01-16T10:51:01;21.60;36.40
72576;DHT22;60613;48.658;2.328;2023-01-16T10:53:29;21.50;36.20
72576;DHT22;60613;48.658;2.328;2023-01-16T10:55:55;21.50;36.30
72576;DHT22;60613;48.658;2.328;2023-01-16T10:58:28;21.50;36.30
72576;DHT22;60613;48.658;2.328;2023-01-16T11:01:19;21.50;36.20
72576;DHT22;60613;48.658;2.328;2023-01-16T11:06:14;21.50;35.90
72576;DHT22;60613;48.658;2.328;2023-01-16T11:08:42;21.50;35.80
72576;DHT22;60613;48.658;2.328;2023-01-16T11:11:11;21.50;36.00
72576;DHT22;60613;48.658;2.328;2023-01-16T11:13:58;21.40;36.40
72576;DHT22;60613;48.658;2.328;2023-01-16T11:16:42;21.40;36.60
72576;DHT22;60613;48.658;2.328;2023-01-16T11:19:27;21.40;36.20
72576;DHT22;60613;48.658;2.328;2023-01-16T11:21:57;21.50;35.70
72576;DHT22;60613;48.658;2.328;2023-01-16T11:24:33;21.50;36.00
72576;DHT22;60613;48.658;2.328;2023-01-16T11:27:00;21.40;36.80
72576;DHT22;60613;48.658;2.328;2023-01-16T11:29:35;21.40;36.70
72576;DHT22;60613;48.658;2.328;2023-01-16T11:32:06;21.40;36.90
72576;DHT22;60613;48.658;2.328;2023-01-16T11:34:32;21.40;37.30
72576;DHT22;60613;48.658;2.328;2023-01-16T11:37:01;21.40;37.30
72576;DHT22;60613;48.658;2.328;2023-01-16T11:39:30;21.30;37.50
72576;DHT22;60613;48.658;2.328;2023-01-16T11:41:58;21.30;37.30
72576;DHT22;60613;48.658;2.328;2023-01-16T11:44:35;21.30;37.60
72576;DHT22;60613;48.658;2.328;2023-01-16T11:47:23;21.30;37.60
72576;DHT22;60613;48.658;2.328;2023-01-16T11:49:53;21.30;37.90
72576;DHT22;60613;48.658;2.328;2023-01-16T11:52:23;21.20;38.00
72576;DHT22;60613;48.658;2.328;2023-01-16T11:55:03;21.20;38.00
72576;DHT22;60613;48.658;2.328;2023-01-16T11:57:43;21.20;38.00
72576;DHT22;60613;48.658;2.328;2023-01-16T12:06:11;21.20;38.70
72576;DHT22;60613;48.658;2.328;2023-01-16T12:11:22;21.20;38.70
72576;DHT22;60613;48.658;2.328;2023-01-16T12:14:03;21.20;38.90
72576;DHT22;60613;48.658;2.328;2023-01-16T12:59:32;21.40;39.30
72576;DHT22;60613;48.658;2.328;2023-01-16T13:04:53;21.40;38.60
72576;DHT22;60613;48.658;2.328;2023-01-16T13:07:22;21.40;38.80
72576;DHT22;60613;48.658;2.328;2023-01-16T13:10:01;21.40;38.60
72576;DHT22;60613;48.658;2.328;2023-01-16T13:12:47;21.40;38.40
72576;DHT22;60613;48.658;2.328;2023-01-16T13:15:35;21.40;38.30
72576;DHT22;60613;48.658;2.328;2023-01-16T13:18:03;21.40;38.40
72576;DHT22;60613;48.658;2.328;2023-01-16T13:20:31;21.40;38.50
72576;DHT22;60613;48.658;2.328;2023-01-16T13:23:02;21.30;38.30
72576;DHT22;60613;48.658;2.328;2023-01-16T13:25:36;21.40;38.20
72576;DHT22;60613;48.658;2.328;2023-01-16T13:30:38;21.40;38.30
72576;DHT22;60613;48.658;2.328;2023-01-16T13:33:13;21.40;38.20
72576;DHT22;60613;48.658;2.328;2023-01-16T13:38:32;21.40;38.20
72576;DHT22;60613;48.658;2.328;2023-01-16T13:46:30;21.40;37.90
72576;DHT22;60613;48.658;2.328;2023-01-16T13:49:00;21.40;37.80
72576;DHT22;60613;48.658;2.328;2023-01-16T13:51:26;21.30;38.80
72576;DHT22;60613;48.658;2.328;2023-01-16T13:53:56;21.40;37.60
72576;DHT22;60613;48.658;2.328;2023-01-16T13:56:25;21.40;37.60
72576;DHT22;60613;48.658;2.328;2023-01-16T13:59:00;21.40;37.60
72576;DHT22;60613;48.658;2.328;2023-01-16T14:06:50;21.40;37.30
72576;DHT22;60613;48.658;2.328;2023-01-16T14:15:46;21.40;37.30
72576;DHT22;60613;48.658;2.328;2023-01-16T14:23:46;21.40;37.10
72576;DHT22;60613;48.658;2.328;2023-01-16T14:29:28;21.40;37.10
72576;DHT22;60613;48.658;2.328;2023-01-16T14:32:02;21.50;37.10
72576;DHT22;60613;48.658;2.328;2023-01-16T14:34:36;21.50;37.10
72576;DHT22;60613;48.658;2.328;2023-01-16T14:37:05;21.50;37.10
72576;DHT22;60613;48.658;2.328;2023-01-16T14:39:37;21.40;37.00
72576;DHT22;60613;48.658;2.328;2023-01-16T14:42:16;21.40;36.90
72576;DHT22;60613;48.658;2.328;2023-01-16T14:54:06;21.40;36.80
72576;DHT22;60613;48.658;2.328;2023-01-16T14:57:01;21.40;36.90
72576;DHT22;60613;48.658;2.328;2023-01-16T14:59:37;21.30;36.80
72576;DHT22;60613;48.658;2.328;2023-01-16T15:02:25;21.30;36.90
72576;DHT22;60613;48.658;2.328;2023-01-16T15:05:09;21.30;36.80
72576;DHT22;60613;48.658;2.328;2023-01-16T15:07:48;21.40;36.70
72576;DHT22;60613;48.658;2.328;2023-01-16T15:10:45;21.30;36.70
72576;DHT22;60613;48.658;2.328;2023-01-16T15:13:25;21.40;36.70
72576;DHT22;60613;48.658;2.328;2023-01-16T15:16:00;21.40;36.70
72576;DHT22;60613;48.658;2.328;2023-01-16T15:18:26;21.40;36.70
72576;DHT22;60613;48.658;2.328;2023-01-16T15:21:16;21.30;36.70
72576;DHT22;60613;48.658;2.328;2023-01-16T15:23:45;21.30;36.60
72576;DHT22;60613;48.658;2.328;2023-01-16T15:28:58;21.30;36.70
72576;DHT22;60613;48.658;2.328;2023-01-16T15:31:34;21.40;36.70
72576;DHT22;60613;48.658;2.328;2023-01-16T15:36:44;21.40;36.60
72576;DHT22;60613;48.658;2.328;2023-01-16T15:42:14;21.40;36.50
72576;DHT22;60613;48.658;2.328;2023-01-16T15:45:08;21.30;36.40
72576;DHT22;60613;48.658;2.328;2023-01-16T15:50:49;21.30;36.60
72576;DHT22;60613;48.658;2.328;2023-01-16T15:53:17;21.30;36.60
72576;DHT22;60613;48.658;2.328;2023-01-16T15:55:52;21.30;36.50
72576;DHT22;60613;48.658;2.328;2023-01-16T15:58:22;21.30;36.50
72576;DHT22;60613;48.658;2.328;2023-01-16T16:01:02;21.30;36.40
72576;DHT22;60613;48.658;2.328;2023-01-16T16:03:39;21.30;36.50
72576;DHT22;60613;48.658;2.328;2023-01-16T16:06:09;21.30;36.70
72576;DHT22;60613;48.658;2.328;2023-01-16T16:08:37;21.30;36.50
72576;DHT22;60613;48.658;2.328;2023-01-16T16:11:06;21.30;36.60
72576;DHT22;60613;48.658;2.328;2023-01-16T16:13:51;21.30;36.70
72576;DHT22;60613;48.658;2.328;2023-01-16T16:16:19;21.30;36.60
72576;DHT22;60613;48.658;2.328;2023-01-16T16:19:04;21.30;36.40
72576;DHT22;60613;48.658;2.328;2023-01-16T16:21:44;21.30;36.50
72576;DHT22;60613;48.658;2.328;2023-01-16T16:24:32;21.30;36.50
72576;DHT22;60613;48.658;2.328;2023-01-16T16:27:06;21.20;36.50
72576;DHT22;60613;48.658;2.328;2023-01-16T16:29:34;21.20;36.50
72576;DHT22;60613;48.658;2.328;2023-01-16T16:32:05;21.20;36.50
72576;DHT22;60613;48.658;2.328;2023-01-16T16:34:35;21.20;36.60
72576;DHT22;60613;48.658;2.328;2023-01-16T16:37:02;21.20;36.50
72576;DHT22;60613;48.658;2.328;2023-01-16T16:47:31;21.20;36.90
72576;DHT22;60613;48.658;2.328;2023-01-16T16:49:57;21.30;37.00
72576;DHT22;60613;48.658;2.328;2023-01-16T16:52:33;21.40;36.20
72576;DHT22;60613;48.658;2.328;2023-01-16T16:55:01;21.50;36.00
72576;DHT22;60613;48.658;2.328;2023-01-16T16:57:39;21.50;35.90
72576;DHT22;60613;48.658;2.328;2023-01-16T17:00:08;21.50;35.90
72576;DHT22;60613;48.658;2.328;2023-01-16T17:02:38;21.60;35.60
72576;DHT22;60613;48.658;2.328;2023-01-16T17:05:05;21.60;35.60
72576;DHT22;60613;48.658;2.328;2023-01-16T17:07:30;21.50;35.60
72576;DHT22;60613;48.658;2.328;2023-01-16T17:09:59;21.50;35.70
72576;DHT22;60613;48.658;2.328;2023-01-16T17:12:24;21.50;35.60
72576;DHT22;60613;48.658;2.328;2023-01-16T17:14:50;21.50;35.80
72576;DHT22;60613;48.658;2.328;2023-01-16T17:17:17;21.50;35.80
72576;DHT22;60613;48.658;2.328;2023-01-16T17:19:44;21.50;36.20
72576;DHT22;60613;48.658;2.328;2023-01-16T17:22:11;21.60;36.90
72576;DHT22;60613;48.658;2.328;2023-01-16T17:24:37;21.50;36.90
72576;DHT22;60613;48.658;2.328;2023-01-16T17:27:03;21.50;36.40
72576;DHT22;60613;48.658;2.328;2023-01-16T17:29:34;21.50;36.30
72576;DHT22;60613;48.658;2.328;2023-01-16T17:32:00;21.50;36.60
72576;DHT22;60613;48.658;2.328;2023-01-16T17:34:31;21.50;36.40
72576;DHT22;60613;48.658;2.328;2023-01-16T17:36:58;21.40;36.40
72576;DHT22;60613;48.658;2.328;2023-01-16T17:39:24;21.40;36.30
72576;DHT22;60613;48.658;2.328;2023-01-16T17:41:51;21.40;36.30
72576;DHT22;60613;48.658;2.328;2023-01-16T17:44:37;21.30;36.10
72576;DHT22;60613;48.658;2.328;2023-01-16T17:47:21;21.30;36.00
72576;DHT22;60613;48.658;2.328;2023-01-16T17:49:47;21.30;36.00
72576;DHT22;60613;48.658;2.328;2023-01-16T17:52:31;21.40;36.00
72576;DHT22;60613;48.658;2.328;2023-01-16T17:54:57;21.30;36.10
72576;DHT22;60613;48.658;2.328;2023-01-16T17:57:40;21.30;36.20
72576;DHT22;60613;48.658;2.328;2023-01-16T18:00:07;21.20;36.30
72576;DHT22;60613;48.658;2.328;2023-01-16T18:02:33;21.20;36.40
72576;DHT22;60613;48.658;2.328;2023-01-16T18:04:59;21.20;36.30
72576;DHT22;60613;48.658;2.328;2023-01-16T18:07:24;21.20;36.30
72576;DHT22;60613;48.658;2.328;2023-01-16T18:09:50;21.20;36.50
72576;DHT22;60613;48.658;2.328;2023-01-16T18:12:16;21.20;36.40
72576;DHT22;60613;48.658;2.328;2023-01-16T18:15:00;21.20;36.30
72576;DHT22;60613;48.658;2.328;2023-01-16T18:17:44;21.20;36.40
72576;DHT22;60613;48.658;2.328;2023-01-16T18:20:10;21.10;36.30
72576;DHT22;60613;48.658;2.328;2023-01-16T18:22:37;21.10;36.40
72576;DHT22;60613;48.658;2.328;2023-01-16T18:25:05;21.10;36.40
72576;DHT22;60613;48.658;2.328;2023-01-16T18:27:31;21.10;36.50
72576;DHT22;60613;48.658;2.328;2023-01-16T18:29:56;21.10;36.50
72576;DHT22;60613;48.658;2.328;2023-01-16T18:32:25;21.00;36.50
72576;DHT22;60613;48.658;2.328;2023-01-16T18:34:52;21.00;36.50
72576;DHT22;60613;48.658;2.328;2023-01-16T18:37:20;21.00;36.50
72576;DHT22;60613;48.658;2.328;2023-01-16T18:39:46;21.00;36.50
72576;DHT22;60613;48.658;2.328;2023-01-16T18:42:30;21.00;36.60
72576;DHT22;60613;48.658;2.328;2023-01-16T18:45:15;21.00;36.50
72576;DHT22;60613;48.658;2.328;2023-01-16T18:48:00;21.00;36.50
72576;DHT22;60613;48.658;2.328;2023-01-16T18:50:44;21.00;36.50
72576;DHT22;60613;48.658;2.328;2023-01-16T18:53:35;21.00;36.60
72576;DHT22;60613;48.658;2.328;2023-01-16T18:56:23;21.00;36.60
72576;DHT22;60613;48.658;2.328;2023-01-16T18:59:18;21.00;36.60
72576;DHT22;60613;48.658;2.328;2023-01-16T19:04:52;21.00;36.70
72576;DHT22;60613;48.658;2.328;2023-01-16T19:07:23;21.00;36.70
72576;DHT22;60613;48.658;2.328;2023-01-16T19:09:52;21.00;36.70
72576;DHT22;60613;48.658;2.328;2023-01-16T19:12:21;21.00;36.70
72576;DHT22;60613;48.658;2.328;2023-01-16T19:14:48;21.00;36.60
72576;DHT22;60613;48.658;2.328;2023-01-16T19:17:14;21.00;36.70
72576;DHT22;60613;48.658;2.328;2023-01-16T19:19:40;21.00;36.70
72576;DHT22;60613;48.658;2.328;2023-01-16T19:22:06;21.10;36.60
72576;DHT22;60613;48.658;2.328;2023-01-16T19:24:31;21.10;36.70
72576;DHT22;60613;48.658;2.328;2023-01-16T19:26:58;21.10;37.80
72576;DHT22;60613;48.658;2.328;2023-01-16T19:29:24;21.00;36.60
72576;DHT22;60613;48.658;2.328;2023-01-16T19:31:51;21.00;36.60
72576;DHT22;60613;48.658;2.328;2023-01-16T19:34:17;21.00;36.40
72576;DHT22;60613;48.658;2.328;2023-01-16T19:36:44;21.00;36.60
72576;DHT22;60613;48.658;2.328;2023-01-16T19:39:11;21.00;36.60
72576;DHT22;60613;48.658;2.328;2023-01-16T19:41:37;21.00;36.60
72576;DHT22;60613;48.658;2.328;2023-01-16T19:44:22;21.00;36.60
72576;DHT22;60613;48.658;2.328;2023-01-16T19:47:07;21.00;36.60
72576;DHT22;60613;48.658;2.328;2023-01-16T19:49:33;21.00;36.70
72576;DHT22;60613;48.658;2.328;2023-01-16T19:52:00;21.00;36.60
72576;DHT22;60613;48.658;2.328;2023-01-16T19:54:27;21.00;36.70
72576;DHT22;60613;48.658;2.328;2023-01-16T19:56:53;21.00;36.60
72576;DHT22;60613;48.658;2.328;2023-01-16T19:59:19;21.00;36.60
72576;DHT22;60613;48.658;2.328;2023-01-16T20:01:57;21.00;36.70
72576;DHT22;60613;48.658;2.328;2023-01-16T20:04:29;21.00;36.70
72576;DHT22;60613;48.658;2.328;2023-01-16T20:06:55;21.00;36.60
72576;DHT22;60613;48.658;2.328;2023-01-16T20:09:21;21.00;36.70
72576;DHT22;60613;48.658;2.328;2023-01-16T20:11:47;21.00;36.60
72576;DHT22;60613;48.658;2.328;2023-01-16T20:14:33;21.00;36.50
72576;DHT22;60613;48.658;2.328;2023-01-16T20:16:59;21.10;36.50
72576;DHT22;60613;48.658;2.328;2023-01-16T20:19:25;21.10;36.50
72576;DHT22;60613;48.658;2.328;2023-01-16T20:21:54;21.10;36.50
72576;DHT22;60613;48.658;2.328;2023-01-16T20:24:21;21.10;36.50
72576;DHT22;60613;48.658;2.328;2023-01-16T20:26:48;21.10;36.50
72576;DHT22;60613;48.658;2.328;2023-01-16T20:29:16;21.10;36.50
72576;DHT22;60613;48.658;2.328;2023-01-16T20:31:42;21.10;36.40
72576;DHT22;60613;48.658;2.328;2023-01-16T20:34:08;21.10;36.40
72576;DHT22;60613;48.658;2.328;2023-01-16T20:36:34;21.10;36.30
72576;DHT22;60613;48.658;2.328;2023-01-16T20:38:59;21.10;36.30
72576;DHT22;60613;48.658;2.328;2023-01-16T20:41:25;21.10;36.30
72576;DHT22;60613;48.658;2.328;2023-01-16T20:44:21;21.10;36.20
72576;DHT22;60613;48.658;2.328;2023-01-16T20:47:08;21.10;36.30
72576;DHT22;60613;48.658;2.328;2023-01-16T20:49:34;21.10;36.30
72576;DHT22;60613;48.658;2.328;2023-01-16T20:52:00;21.10;36.20
72576;DHT22;60613;48.658;2.328;2023-01-16T20:54:26;21.10;36.20
72576;DHT22;60613;48.658;2.328;2023-01-16T20:56:53;21.10;36.20
72576;DHT22;60613;48.658;2.328;2023-01-16T20:59:20;21.20;36.10
72576;DHT22;60613;48.658;2.328;2023-01-16T21:01:46;21.10;36.10
72576;DHT22;60613;48.658;2.328;2023-01-16T21:04:14;21.10;37.30
72576;DHT22;60613;48.658;2.328;2023-01-16T21:06:44;21.10;36.10
72576;DHT22;60613;48.658;2.328;2023-01-16T21:09:11;21.20;36.10
72576;DHT22;60613;48.658;2.328;2023-01-16T21:11:37;21.20;36.10
72576;DHT22;60613;48.658;2.328;2023-01-16T21:14:22;21.20;36.10
72576;DHT22;60613;48.658;2.328;2023-01-16T21:16:49;21.10;36.00
72576;DHT22;60613;48.658;2.328;2023-01-16T21:19:34;21.20;36.00
72576;DHT22;60613;48.658;2.328;2023-01-16T21:22:21;21.10;35.90
72576;DHT22;60613;48.658;2.328;2023-01-16T21:24:47;21.20;35.90
72576;DHT22;60613;48.658;2.328;2023-01-16T21:27:16;21.20;35.90
72576;DHT22;60613;48.658;2.328;2023-01-16T21:29:44;21.10;35.80
72576;DHT22;60613;48.658;2.328;2023-01-16T21:32:11;21.10;35.80
72576;DHT22;60613;48.658;2.328;2023-01-16T21:34:37;21.20;35.80
72576;DHT22;60613;48.658;2.328;2023-01-16T21:37:03;21.20;35.80
72576;DHT22;60613;48.658;2.328;2023-01-16T21:39:29;21.20;35.80
72576;DHT22;60613;48.658;2.328;2023-01-16T21:41:55;21.20;35.80
72576;DHT22;60613;48.658;2.328;2023-01-16T21:44:40;21.20;35.80
72576;DHT22;60613;48.658;2.328;2023-01-16T21:47:24;21.10;35.70
72576;DHT22;60613;48.658;2.328;2023-01-16T21:49:50;21.20;35.80
72576;DHT22;60613;48.658;2.328;2023-01-16T21:52:15;21.20;35.70
72576;DHT22;60613;48.658;2.328;2023-01-16T21:54:41;21.20;35.60
72576;DHT22;60613;48.658;2.328;2023-01-16T21:57:07;21.20;35.60
72576;DHT22;60613;48.658;2.328;2023-01-16T21:59:33;21.20;35.50
